createdAt,value
2022-11-25T00:00:49.175Z,7.33
2022-11-25T00:03:16.209Z,5.17
2022-11-25T00:05:43.280Z,3.90
2022-11-25T00:08:09.966Z,6.30
2022-11-25T00:10:36.539Z,8.17
2022-11-25T00:13:03.355Z,6.13
2022-11-25T00:15:29.944Z,3.97
2022-11-25T00:17:56.723Z,7.00
2022-11-25T00:20:23.676Z,10.13
2022-11-25T00:22:50.760Z,6.60
2022-11-25T00:25:17.356Z,7.90
2022-11-25T00:27:44.149Z,8.23
2022-11-25T00:30:11.234Z,5.00
2022-11-25T00:32:38.329Z,6.63
2022-11-25T00:35:05.375Z,5.63
2022-11-25T00:37:35.213Z,5.87
2022-11-25T00:40:05.519Z,5.53
2022-11-25T00:42:32.273Z,5.17
2022-11-25T00:44:58.854Z,6.00
2022-11-25T00:47:25.717Z,6.50
2022-11-25T00:49:54.294Z,5.17
2022-11-25T00:52:26.656Z,5.63
2022-11-25T00:54:54.051Z,5.30
2022-11-25T00:57:22.917Z,4.37
2022-11-25T00:59:49.678Z,4.77
2022-11-25T01:02:17.424Z,8.30
2022-11-25T01:04:44.938Z,5.87
2022-11-25T01:07:14.510Z,6.10
2022-11-25T01:09:41.378Z,8.63
2022-11-25T01:12:08.092Z,7.60
2022-11-25T01:14:35.263Z,5.93
2022-11-25T01:17:02.075Z,7.73
2022-11-25T01:19:28.942Z,7.90
2022-11-25T01:21:55.622Z,7.40
2022-11-25T01:24:24.073Z,9.50
2022-11-25T01:26:54.964Z,7.37
2022-11-25T01:29:22.663Z,9.13
2022-11-25T01:31:49.933Z,6.27
2022-11-25T01:34:23.155Z,8.37
2022-11-25T01:36:49.917Z,5.67
2022-11-25T01:39:30.490Z,8.23
2022-11-25T01:42:00.404Z,6.13
2022-11-25T01:44:29.003Z,7.70
2022-11-25T01:46:58.334Z,7.27
2022-11-25T01:49:31.176Z,11.67
2022-11-25T01:51:57.817Z,8.47
2022-11-25T01:54:28.057Z,8.33
2022-11-25T01:57:03.539Z,7.80
2022-11-25T01:59:34.425Z,9.00
2022-11-25T02:02:02.330Z,7.97
2022-11-25T02:04:33.624Z,6.00
2022-11-25T02:07:15.281Z,6.07
2022-11-25T02:09:43.999Z,7.17
2022-11-25T02:12:10.843Z,7.17
2022-11-25T02:14:39.333Z,6.53
2022-11-25T02:17:06.152Z,5.13
2022-11-25T02:20:02.977Z,7.53
2022-11-25T02:22:55.784Z,8.60
2022-11-25T02:25:22.413Z,5.33
2022-11-25T02:27:54.013Z,5.73
2022-11-25T02:30:20.777Z,6.47
2022-11-25T02:32:48.446Z,5.13
2022-11-25T02:35:21.782Z,7.80
2022-11-25T02:37:48.547Z,7.33
2022-11-25T02:40:15.475Z,5.43
2022-11-25T02:42:42.573Z,5.27
2022-11-25T02:45:12.865Z,4.10
2022-11-25T02:47:39.566Z,5.50
2022-11-25T02:50:07.058Z,6.03
2022-11-25T02:52:33.971Z,5.60
2022-11-25T02:55:00.544Z,15.10
2022-11-25T02:57:27.470Z,11.00
2022-11-25T02:59:54.054Z,7.43
2022-11-25T03:02:21.144Z,7.67
2022-11-25T03:04:47.902Z,5.17
2022-11-25T03:07:14.598Z,7.30
2022-11-25T03:09:41.235Z,7.33
2022-11-25T03:12:11.317Z,7.10
2022-11-25T03:14:38.671Z,6.33
2022-11-25T03:17:07.162Z,7.70
2022-11-25T03:19:33.968Z,6.30
2022-11-25T03:22:00.671Z,11.33
2022-11-25T03:24:27.317Z,4.70
2022-11-25T03:26:54.112Z,3.93
2022-11-25T03:29:20.735Z,5.00
2022-11-25T03:31:47.543Z,6.43
2022-11-25T03:34:14.378Z,8.07
2022-11-25T03:36:41.469Z,5.90
2022-11-25T03:39:08.651Z,5.80
2022-11-25T03:41:37.159Z,7.70
2022-11-25T03:44:03.950Z,5.13
2022-11-25T03:46:32.373Z,8.73
2022-11-25T03:49:01.003Z,6.50
2022-11-25T03:51:28.553Z,8.30
2022-11-25T03:53:55.301Z,7.23
2022-11-25T03:56:23.660Z,8.50
2022-11-25T03:58:50.499Z,6.20
2022-11-25T04:01:18.190Z,6.50
2022-11-25T04:03:45.806Z,6.00
2022-11-25T04:06:12.653Z,6.53
2022-11-25T04:08:39.613Z,6.50
2022-11-25T04:11:07.039Z,7.87
2022-11-25T04:13:38.864Z,8.73
2022-11-25T04:16:05.736Z,9.00
2022-11-25T04:18:32.705Z,5.87
2022-11-25T04:20:59.916Z,7.50
2022-11-25T04:23:26.539Z,8.37
2022-11-25T04:26:01.140Z,5.77
2022-11-25T04:28:34.093Z,8.10
2022-11-25T04:31:06.476Z,9.07
2022-11-25T04:33:33.252Z,6.07
2022-11-25T04:35:59.865Z,7.93
2022-11-25T04:38:27.162Z,8.73
2022-11-25T04:40:55.171Z,6.70
2022-11-25T04:43:23.206Z,6.47
2022-11-25T04:46:13.560Z,8.93
2022-11-25T04:48:41.942Z,8.63
2022-11-25T04:51:09.629Z,6.17
2022-11-25T04:53:36.335Z,6.23
2022-11-25T04:56:03.453Z,7.93
2022-11-25T04:58:35.933Z,6.47
2022-11-25T05:01:03.786Z,6.43
2022-11-25T05:03:30.951Z,10.33
2022-11-25T05:05:57.941Z,9.53
2022-11-25T05:08:24.793Z,9.47
2022-11-25T05:10:51.515Z,6.27
2022-11-25T05:13:18.153Z,7.50
2022-11-25T05:15:44.924Z,6.37
2022-11-25T05:18:12.805Z,9.03
2022-11-25T05:20:44.576Z,8.97
2022-11-25T05:23:11.879Z,12.33
2022-11-25T05:25:40.012Z,6.40
2022-11-25T05:28:29.463Z,9.33
2022-11-25T05:30:56.365Z,8.97
2022-11-25T05:33:23.728Z,9.47
2022-11-25T05:36:08.571Z,10.90
2022-11-25T05:38:46.463Z,8.63
2022-11-25T05:41:18.578Z,9.17
2022-11-25T05:43:46.011Z,6.67
2022-11-25T05:46:12.710Z,6.80
2022-11-25T05:48:46.446Z,6.07
2022-11-25T05:51:13.239Z,7.90
2022-11-25T05:53:39.961Z,7.27
2022-11-25T05:56:07.564Z,10.37
2022-11-25T05:58:56.201Z,9.33
2022-11-25T06:01:28.293Z,9.50
2022-11-25T06:03:59.110Z,15.10
2022-11-25T06:06:25.817Z,11.53
2022-11-25T06:08:52.478Z,10.77
2022-11-25T06:11:21.063Z,9.83
2022-11-25T06:13:47.812Z,9.07
2022-11-25T06:16:25.496Z,9.77
2022-11-25T06:19:03.827Z,10.77
2022-11-25T06:21:30.558Z,14.70
2022-11-25T06:23:57.139Z,9.43
2022-11-25T06:26:23.922Z,5.97
2022-11-25T06:28:56.124Z,7.97
2022-11-25T06:31:25.730Z,7.57
2022-11-25T06:34:15.673Z,6.50
2022-11-25T06:36:42.400Z,8.67
2022-11-25T06:39:09.253Z,7.97
2022-11-25T06:41:36.030Z,8.20
2022-11-25T06:44:02.621Z,6.83
2022-11-25T06:46:29.342Z,7.53
2022-11-25T06:48:56.027Z,9.40
2022-11-25T06:51:22.747Z,7.63
2022-11-25T06:53:49.364Z,8.63
2022-11-25T06:56:19.285Z,6.30
2022-11-25T06:58:47.242Z,7.20
2022-11-25T07:01:25.319Z,7.43
2022-11-25T07:04:04.604Z,7.23
2022-11-25T07:06:32.361Z,9.47
2022-11-25T07:08:59.166Z,9.93
2022-11-25T07:11:34.578Z,7.47
2022-11-25T07:14:07.969Z,8.90
2022-11-25T07:16:38.541Z,10.03
2022-11-25T07:19:05.658Z,8.30
2022-11-25T07:21:34.045Z,6.47
2022-11-25T07:24:02.490Z,8.97
2022-11-25T07:26:31.718Z,8.97
2022-11-25T07:29:04.365Z,11.00
2022-11-25T07:31:34.445Z,7.77
2022-11-25T07:34:08.201Z,9.00
2022-11-25T07:36:36.164Z,7.77
2022-11-25T07:39:07.248Z,8.80
2022-11-25T07:41:34.508Z,8.23
2022-11-25T07:44:03.614Z,11.20
2022-11-25T07:46:42.366Z,9.00
2022-11-25T07:49:12.468Z,7.60
2022-11-25T07:51:48.544Z,7.20
2022-11-25T07:54:15.607Z,8.83
2022-11-25T07:56:44.428Z,10.93
2022-11-25T07:59:15.073Z,7.50
2022-11-25T08:01:42.847Z,9.70
2022-11-25T08:04:16.487Z,7.93
2022-11-25T08:06:48.033Z,6.67
2022-11-25T08:09:17.383Z,7.80
2022-11-25T08:11:44.141Z,9.60
2022-11-25T08:14:12.862Z,7.90
2022-11-25T08:16:39.685Z,8.77
2022-11-25T08:19:09.593Z,8.33
2022-11-25T08:21:38.562Z,8.43
2022-11-25T08:24:07.027Z,10.00
2022-11-25T08:26:36.545Z,10.43
2022-11-25T08:29:13.707Z,15.47
2022-11-25T08:31:41.137Z,6.73
2022-11-25T08:34:18.195Z,11.20
2022-11-25T08:36:48.630Z,7.87
2022-11-25T08:39:44.183Z,10.87
2022-11-25T08:42:06.922Z,10.80
2022-11-25T08:44:37.927Z,8.83
2022-11-25T08:47:06.708Z,10.70
2022-11-25T08:49:40.483Z,13.80
2022-11-25T08:52:10.272Z,12.73
2022-11-25T08:54:37.975Z,13.40
2022-11-25T08:57:07.764Z,15.13
2022-11-25T08:59:36.378Z,12.20
2022-11-25T09:02:06.824Z,13.77
2022-11-25T09:04:35.581Z,8.93
2022-11-25T09:07:04.487Z,12.37
2022-11-25T09:09:33.306Z,11.37
2022-11-25T09:12:08.541Z,7.73
2022-11-25T09:14:36.852Z,9.10
2022-11-25T09:17:11.956Z,10.83
2022-11-25T09:19:41.406Z,8.67
2022-11-25T09:22:17.361Z,10.00
2022-11-25T09:24:46.155Z,8.63
2022-11-25T09:27:12.903Z,10.07
2022-11-25T09:29:40.815Z,8.30
2022-11-25T09:32:07.513Z,7.93
2022-11-25T09:34:34.319Z,11.47
2022-11-25T09:37:01.053Z,8.73
2022-11-25T09:39:27.711Z,10.87
2022-11-25T09:42:01.940Z,8.27
2022-11-25T09:44:53.344Z,11.27
2022-11-25T09:47:45.414Z,10.00
2022-11-25T09:50:40.116Z,9.17
2022-11-25T09:53:33.433Z,8.17
2022-11-25T09:56:04.639Z,6.97
2022-11-25T09:58:53.416Z,10.40
2022-11-25T10:01:25.007Z,10.27
2022-11-25T10:04:01.577Z,10.97
2022-11-25T10:06:35.951Z,11.47
2022-11-25T10:09:12.938Z,9.20
2022-11-25T10:11:59.858Z,9.23
2022-11-25T10:14:42.079Z,12.90
2022-11-25T10:17:33.843Z,11.20
2022-11-25T10:20:17.166Z,13.53
2022-11-25T10:22:47.183Z,9.80
2022-11-25T10:25:30.290Z,11.37
2022-11-25T10:28:00.559Z,9.83
2022-11-25T10:30:48.688Z,10.37
2022-11-25T10:33:21.103Z,11.40
2022-11-25T10:35:58.864Z,8.43
2022-11-25T10:38:32.291Z,9.90
2022-11-25T10:40:59.045Z,6.53
2022-11-25T10:43:31.512Z,7.23
2022-11-25T10:46:14.329Z,6.50
2022-11-25T10:49:02.579Z,5.03
2022-11-25T10:51:43.539Z,4.23
2022-11-25T10:54:27.729Z,5.30
2022-11-25T10:56:58.098Z,4.43
2022-11-25T10:59:33.610Z,4.73
2022-11-25T11:02:24.650Z,6.87
2022-11-25T11:04:59.912Z,3.67
2022-11-25T11:07:32.607Z,8.33
2022-11-25T11:10:21.540Z,7.40
2022-11-25T11:12:54.570Z,5.93
2022-11-25T11:15:23.715Z,5.63
2022-11-25T11:17:50.686Z,4.50
2022-11-25T11:20:37.926Z,6.30
2022-11-25T11:23:11.775Z,5.23
2022-11-25T11:25:41.400Z,5.03
2022-11-25T11:28:35.140Z,5.53
2022-11-25T11:31:39.784Z,3.83
2022-11-25T11:34:21.724Z,4.83
2022-11-25T11:36:55.831Z,4.30
2022-11-25T11:39:44.353Z,4.60
2022-11-25T11:42:40.346Z,4.87
2022-11-25T11:45:13.242Z,4.90
2022-11-25T11:47:58.952Z,5.80
2022-11-25T11:50:28.637Z,4.47
2022-11-25T11:53:17.686Z,4.73
2022-11-25T11:56:34.349Z,6.10
2022-11-25T11:59:05.407Z,9.33
2022-11-25T12:01:37.567Z,4.77
2022-11-25T12:04:26.484Z,5.77
2022-11-25T12:07:05.341Z,5.73
2022-11-25T12:09:38.950Z,6.43
2022-11-25T12:12:11.159Z,4.47
2022-11-25T12:14:52.042Z,5.73
2022-11-25T12:17:34.524Z,5.43
2022-11-25T12:20:04.206Z,5.30
2022-11-25T12:22:45.668Z,5.67
2022-11-25T12:25:22.705Z,4.83
2022-11-25T12:27:55.377Z,7.63
2022-11-25T12:30:23.407Z,7.13
2022-11-25T12:33:05.193Z,7.60
2022-11-25T12:36:02.847Z,4.93
2022-11-25T12:38:45.292Z,6.93
2022-11-25T12:41:42.010Z,4.63
2022-11-25T12:44:40.386Z,5.90
2022-11-25T12:47:10.939Z,5.30
2022-11-25T12:49:50.151Z,4.77
2022-11-25T12:52:25.661Z,4.43
2022-11-25T12:55:10.802Z,4.83
2022-11-25T12:58:05.243Z,5.63
2022-11-25T13:00:43.164Z,6.87
2022-11-25T13:03:47.688Z,4.60
2022-11-25T13:06:23.718Z,5.10
2022-11-25T13:09:10.601Z,5.03
2022-11-25T13:12:05.037Z,4.60
2022-11-25T13:15:13.047Z,5.53
2022-11-25T13:17:43.147Z,5.87
2022-11-25T13:20:27.934Z,6.47
2022-11-25T13:23:06.806Z,5.80
2022-11-25T13:25:34.462Z,7.00
2022-11-25T13:28:03.496Z,8.20
2022-11-25T13:30:32.910Z,5.40
2022-11-25T13:33:11.591Z,5.97
2022-11-25T13:35:49.569Z,7.67
2022-11-25T13:38:48.777Z,6.13
2022-11-25T13:41:15.427Z,28.77
2022-11-25T13:44:22.598Z,71.33
2022-11-25T13:46:52.259Z,15.47
2022-11-25T13:49:33.994Z,6.70
2022-11-25T13:52:07.220Z,6.27
2022-11-25T13:54:40.722Z,5.60
2022-11-25T13:57:13.396Z,8.27
2022-11-25T13:59:42.827Z,7.73
2022-11-25T14:02:27.941Z,7.00
2022-11-25T14:05:19.873Z,10.07
2022-11-25T14:07:49.600Z,9.33
2022-11-25T14:10:16.174Z,7.83
2022-11-25T14:12:48.842Z,6.43
2022-11-25T14:15:28.645Z,12.77
2022-11-25T14:18:53.172Z,11.60
2022-11-25T14:21:21.035Z,7.83
2022-11-25T14:24:19.534Z,6.10
2022-11-25T14:26:50.832Z,7.70
2022-11-25T14:29:21.083Z,7.67
2022-11-25T14:32:01.541Z,7.27
2022-11-25T14:34:38.890Z,6.20
2022-11-25T14:37:27.913Z,6.97
2022-11-25T14:40:09.645Z,6.57
2022-11-25T14:42:41.765Z,7.30
2022-11-25T14:45:32.634Z,5.70
2022-11-25T14:48:17.033Z,6.43
2022-11-25T14:51:06.659Z,8.63
2022-11-25T14:53:47.599Z,7.23
2022-11-25T14:56:31.637Z,5.93
2022-11-25T14:59:00.921Z,6.10
2022-11-25T15:01:33.555Z,5.77
2022-11-25T15:04:31.482Z,6.83
2022-11-25T15:06:59.275Z,8.27
2022-11-25T15:09:32.001Z,6.60
2022-11-25T15:12:11.663Z,7.93
2022-11-25T15:14:41.700Z,8.70
2022-11-25T15:17:24.399Z,9.03
2022-11-25T15:19:51.634Z,7.90
2022-11-25T15:22:23.629Z,7.40
2022-11-25T15:24:55.796Z,8.27
2022-11-25T15:27:28.384Z,7.93
2022-11-25T15:29:57.634Z,7.00
2022-11-25T15:32:28.960Z,6.30
2022-11-25T15:34:58.204Z,6.07
2022-11-25T15:37:25.051Z,7.37
2022-11-25T15:40:29.258Z,7.87
2022-11-25T15:43:02.599Z,7.00
2022-11-25T15:45:45.693Z,8.50
2022-11-25T15:48:41.738Z,9.40
2022-11-25T15:51:26.672Z,7.97
2022-11-25T15:54:20.987Z,8.13
2022-11-25T15:56:50.877Z,7.40
2022-11-25T15:59:40.865Z,8.70
2022-11-25T16:02:32.817Z,7.17
2022-11-25T16:05:15.810Z,8.27
2022-11-25T16:07:51.925Z,8.93
2022-11-25T16:10:27.793Z,9.07
2022-11-25T16:13:22.960Z,8.30
2022-11-25T16:16:08.198Z,10.57
2022-11-25T16:18:57.029Z,11.87
2022-11-25T16:21:23.623Z,11.30
2022-11-25T16:23:59.341Z,9.70
2022-11-25T16:26:32.398Z,10.63
2022-11-25T16:29:01.671Z,8.80
2022-11-25T16:31:28.317Z,9.17
2022-11-25T16:34:09.665Z,9.87
2022-11-25T16:36:36.319Z,12.53
2022-11-25T16:39:03.727Z,9.77
2022-11-25T16:41:30.909Z,12.27
2022-11-25T16:44:02.546Z,8.93
2022-11-25T16:46:31.596Z,9.90
2022-11-25T16:48:58.162Z,13.20
2022-11-25T16:51:25.179Z,9.60
2022-11-25T16:53:51.928Z,8.83
2022-11-25T16:56:26.583Z,10.60
2022-11-25T16:58:54.057Z,11.17
2022-11-25T17:01:24.618Z,9.33
2022-11-25T17:03:51.339Z,11.70
2022-11-25T17:06:22.305Z,8.90
2022-11-25T17:08:50.466Z,10.90
2022-11-25T17:11:28.319Z,10.03
2022-11-25T17:13:56.832Z,11.90
2022-11-25T17:16:26.343Z,11.20
2022-11-25T17:18:55.304Z,12.40
2022-11-25T17:21:22.354Z,11.73
2022-11-25T17:23:53.745Z,10.83
2022-11-25T17:26:33.072Z,18.87
2022-11-25T17:29:02.655Z,32.37
2022-11-25T17:31:32.499Z,21.70
2022-11-25T17:33:59.545Z,15.87
2022-11-25T17:36:26.959Z,15.60
2022-11-25T17:38:53.778Z,31.53
2022-11-25T17:41:23.829Z,21.20
2022-11-25T17:43:51.435Z,15.80
2022-11-25T17:46:18.571Z,16.33
2022-11-25T17:48:45.663Z,21.87
2022-11-25T17:51:14.482Z,18.57
2022-11-25T17:53:41.676Z,15.87
2022-11-25T17:56:24.625Z,15.57
2022-11-25T17:58:52.845Z,15.33
2022-11-25T18:01:19.608Z,12.90
2022-11-25T18:03:46.683Z,12.90
2022-11-25T18:06:13.290Z,13.13
2022-11-25T18:08:39.963Z,12.83
2022-11-25T18:11:07.388Z,13.90
2022-11-25T18:13:39.213Z,17.27
2022-11-25T18:16:07.978Z,16.00
2022-11-25T18:18:34.700Z,18.03
2022-11-25T18:21:02.490Z,16.53
2022-11-25T18:23:29.872Z,15.10
2022-11-25T18:26:00.446Z,17.17
2022-11-25T18:28:30.351Z,16.10
2022-11-25T18:31:01.137Z,17.70
2022-11-25T18:33:27.901Z,21.60
2022-11-25T18:35:54.492Z,19.10
2022-11-25T18:38:21.304Z,15.53
2022-11-25T18:40:53.257Z,19.87
2022-11-25T18:43:24.457Z,19.00
2022-11-25T18:45:53.345Z,16.60
2022-11-25T18:48:23.472Z,18.67
2022-11-25T18:50:51.970Z,17.33
2022-11-25T18:53:19.094Z,25.50
2022-11-25T18:55:46.559Z,25.10
2022-11-25T18:58:19.650Z,20.47
2022-11-25T19:00:48.043Z,24.30
2022-11-25T19:03:23.774Z,18.63
2022-11-25T19:05:51.429Z,19.50
2022-11-25T19:08:18.029Z,21.73
2022-11-25T19:10:46.293Z,19.83
2022-11-25T19:13:20.043Z,24.73
2022-11-25T19:15:47.361Z,22.73
2022-11-25T19:18:21.460Z,24.17
2022-11-25T19:20:48.282Z,18.30
2022-11-25T19:23:23.638Z,23.20
2022-11-25T19:25:50.397Z,20.47
2022-11-25T19:28:17.541Z,21.57
2022-11-25T19:30:46.652Z,20.57
2022-11-25T19:33:24.514Z,22.30
2022-11-25T19:35:51.358Z,23.43
2022-11-25T19:38:20.371Z,26.13
2022-11-25T19:40:48.811Z,25.90
2022-11-25T19:43:15.510Z,22.93
2022-11-25T19:45:43.618Z,19.57
2022-11-25T19:48:16.932Z,19.13
2022-11-25T19:50:46.205Z,19.87
2022-11-25T19:53:17.658Z,20.13
2022-11-25T19:55:44.691Z,18.73
2022-11-25T19:58:11.797Z,23.07
2022-11-25T20:00:40.001Z,22.40
2022-11-25T20:03:16.744Z,20.97
2022-11-25T20:05:44.084Z,21.00
2022-11-25T20:08:22.006Z,21.07
2022-11-25T20:10:49.425Z,22.50
2022-11-25T20:13:16.242Z,20.47
2022-11-25T20:15:44.946Z,22.30
2022-11-25T20:18:20.548Z,18.80
2022-11-25T20:20:50.126Z,20.27
2022-11-25T20:23:27.218Z,21.30
2022-11-25T20:25:54.168Z,18.67
2022-11-25T20:28:23.708Z,21.43
2022-11-25T20:30:51.988Z,22.70
2022-11-25T20:33:23.996Z,24.10
2022-11-25T20:35:59.411Z,19.90
2022-11-25T20:38:28.662Z,18.63
2022-11-25T20:40:58.374Z,21.80
2022-11-25T20:43:35.207Z,16.77
2022-11-25T20:46:02.631Z,18.40
2022-11-25T20:48:30.021Z,22.30
2022-11-25T20:51:00.699Z,18.73
2022-11-25T20:53:27.755Z,19.23
2022-11-25T20:55:54.365Z,17.60
2022-11-25T20:58:23.823Z,18.63
2022-11-25T21:00:57.084Z,17.70
2022-11-25T21:03:25.282Z,18.60
2022-11-25T21:05:53.334Z,19.80
2022-11-25T21:08:22.630Z,18.93
2022-11-25T21:10:51.637Z,18.93
2022-11-25T21:13:29.920Z,23.40
2022-11-25T21:15:57.104Z,19.70
2022-11-25T21:18:24.298Z,22.37
2022-11-25T21:20:53.778Z,20.27
2022-11-25T21:23:25.349Z,21.97
2022-11-25T21:25:52.094Z,18.20
2022-11-25T21:28:22.094Z,22.43
2022-11-25T21:30:49.435Z,20.80
2022-11-25T21:33:16.850Z,20.20
2022-11-25T21:35:46.478Z,19.87
2022-11-25T21:38:20.029Z,22.83
2022-11-25T21:40:49.909Z,22.53
2022-11-25T21:43:30.315Z,22.60
2022-11-25T21:46:11.649Z,23.53
2022-11-25T21:48:38.384Z,22.07
2022-11-25T21:51:05.132Z,23.40
2022-11-25T21:53:37.017Z,22.80
2022-11-25T21:56:04.851Z,21.73
2022-11-25T21:58:31.546Z,20.10
2022-11-25T22:01:01.152Z,20.37
2022-11-25T22:03:30.900Z,21.23
2022-11-25T22:05:57.610Z,22.17
2022-11-25T22:08:24.213Z,22.30
2022-11-25T22:10:55.383Z,23.90
2022-11-25T22:13:36.525Z,21.33
2022-11-25T22:16:05.552Z,21.97
2022-11-25T22:18:35.544Z,20.80
2022-11-25T22:21:03.532Z,21.73
2022-11-25T22:23:30.238Z,24.57
2022-11-25T22:25:57.501Z,23.23
2022-11-25T22:28:28.601Z,25.83
2022-11-25T22:31:06.429Z,22.47
2022-11-25T22:33:36.993Z,21.60
2022-11-25T22:36:04.941Z,24.23
2022-11-25T22:38:31.606Z,20.90
2022-11-25T22:41:03.558Z,20.37
2022-11-25T22:43:36.484Z,19.57
2022-11-25T22:46:04.677Z,20.57
2022-11-25T22:48:36.246Z,23.67
2022-11-25T22:51:03.659Z,25.47
2022-11-25T22:53:30.455Z,20.63
2022-11-25T22:55:57.145Z,20.97
2022-11-25T22:58:27.802Z,22.53
2022-11-25T23:00:56.636Z,20.27
2022-11-25T23:03:27.114Z,20.63
2022-11-25T23:05:54.221Z,18.93
2022-11-25T23:08:23.991Z,21.43
2022-11-25T23:10:51.971Z,19.70
2022-11-25T23:13:19.010Z,20.57
2022-11-25T23:15:53.057Z,21.00
2022-11-25T23:18:38.194Z,19.37
2022-11-25T23:21:38.220Z,20.47
2022-11-25T23:24:12.783Z,23.03
2022-11-25T23:26:39.551Z,20.60
2022-11-25T23:29:06.328Z,19.63
2022-11-25T23:31:38.413Z,20.23
2022-11-25T23:34:06.908Z,21.33
2022-11-25T23:36:44.049Z,24.03
2022-11-25T23:39:18.933Z,24.33
2022-11-25T23:41:45.960Z,22.30
2022-11-25T23:44:16.726Z,21.97
2022-11-25T23:46:44.370Z,23.43
2022-11-25T23:49:48.722Z,25.40
2022-11-25T23:52:24.548Z,22.03
2022-11-25T23:54:53.018Z,23.77
2022-11-25T23:57:23.331Z,24.97
2022-11-25T23:59:51.008Z,20.80
